Time;durP1;ratioP1;P1;durP2;ratioP2;P2;SDS_P1;SDS_P2;PMS_P1;PMS_P2;Temp;Humidity;BMP_temperature;BMP_pressure;BME280_temperature;BME280_humidity;BME280_pressure;Samples;Min_cycle;Max_cycle;Signal;HPM_P1;HPM_P2
2023/07/08 00:00:55;;;;;;;14.63;7.85;;;19.30;99.90;;;18.29;100.00;97798.94;5044836;28;20103;-70
2023/07/08 00:03:22;;;;;;;12.50;7.32;;;19.30;99.90;;;18.17;100.00;97784.88;5045287;28;20045;-70
2023/07/08 00:05:53;;;;;;;15.57;8.20;;;19.30;99.90;;;18.12;100.00;97793.06;5042461;28;20461;-70
2023/07/08 00:08:21;;;;;;;13.60;6.53;;;19.20;99.90;;;18.33;100.00;97803.03;5043377;28;20072;-70
2023/07/08 00:10:49;;;;;;;12.00;7.43;;;19.20;99.90;;;18.28;100.00;97797.25;5058010;28;20307;-70
2023/07/08 00:13:16;;;;;;;12.73;7.10;;;19.20;99.90;;;18.20;100.00;97800.44;5043286;28;20072;-70
2023/07/08 00:15:43;;;;;;;11.20;7.43;;;19.20;99.90;;;18.17;100.00;97787.50;5042218;28;20052;-70
2023/07/08 00:18:14;;;;;;;15.93;8.00;;;19.20;99.90;;;18.18;100.00;97790.03;5041774;28;20475;-70
2023/07/08 00:20:50;;;;;;;12.88;7.07;;;19.20;99.90;;;18.00;100.00;97782.59;5044673;28;20077;-70
2023/07/08 00:23:21;;;;;;;12.77;6.72;;;19.10;99.90;;;18.12;100.00;97784.34;5044488;28;20383;-70
2023/07/08 00:25:49;;;;;;;12.13;7.35;;;19.10;99.90;;;17.92;100.00;97773.44;5046101;28;20060;-70
2023/07/08 00:28:19;;;;;;;12.98;7.40;;;19.00;99.90;;;17.88;100.00;97781.63;5039248;28;20589;-70
2023/07/08 00:30:47;;;;;;;13.25;7.88;;;19.00;99.90;;;17.81;100.00;97791.72;5041964;28;20445;-70
2023/07/08 00:33:16;;;;;;;12.30;8.30;;;18.90;99.90;;;18.10;100.00;97791.50;5045318;28;20045;-70
2023/07/08 00:35:45;;;;;;;14.90;7.68;;;18.90;99.90;;;18.16;100.00;97789.28;5044513;28;20075;-70
2023/07/08 00:38:26;;;;;;;11.40;8.15;;;18.90;99.90;;;18.06;100.00;97797.91;5040252;28;20120;-70
2023/07/08 00:41:11;;;;;;;11.73;6.95;;;18.80;99.90;;;17.93;100.00;97801.41;5042619;28;20707;-69
2023/07/08 00:43:48;;;;;;;13.02;7.53;;;18.70;99.90;;;17.69;100.00;97811.75;5042869;28;20505;-70
2023/07/08 00:46:31;;;;;;;14.73;8.40;;;18.60;99.90;;;17.76;100.00;97815.63;5043021;28;20052;-69
2023/07/08 00:49:26;;;;;;;13.88;8.68;;;18.40;99.90;;;17.51;100.00;97826.94;5041031;28;20045;-70
2023/07/08 00:51:53;;;;;;;16.15;8.65;;;18.30;99.90;;;17.64;100.00;97824.34;5042665;28;20057;-70
2023/07/08 00:54:21;;;;;;;19.58;8.73;;;18.30;99.90;;;17.42;100.00;97814.44;5044212;28;20102;-70
2023/07/08 00:56:53;;;;;;;12.70;8.68;;;18.30;99.90;;;17.52;100.00;97818.16;5042041;28;20098;-70
2023/07/08 00:59:32;;;;;;;13.60;8.45;;;18.20;99.90;;;17.33;100.00;97821.16;5046741;28;20126;-70
2023/07/08 01:02:04;;;;;;;11.80;7.47;;;18.10;99.90;;;17.43;100.00;97823.19;5040176;28;20049;-70
2023/07/08 01:05:04;;;;;;;16.42;9.73;;;18.00;99.90;;;17.28;100.00;97820.59;5057764;28;20697;-70
2023/07/08 01:07:33;;;;;;;14.32;7.93;;;18.00;99.90;;;17.25;100.00;97827.84;5045434;28;20132;-70
2023/07/08 01:10:12;;;;;;;15.32;8.38;;;17.90;99.90;;;17.14;100.00;97823.28;5056924;28;20106;-70
2023/07/08 01:12:46;;;;;;;13.10;7.40;;;17.90;99.90;;;17.12;100.00;97817.31;5026836;28;20040;-70
2023/07/08 01:15:14;;;;;;;14.90;8.82;;;17.80;99.90;;;17.09;100.00;97817.53;5044550;28;20137;-69
2023/07/08 01:17:45;;;;;;;13.88;8.25;;;17.80;99.90;;;16.98;100.00;97809.50;5041441;28;20152;-69
2023/07/08 01:20:14;;;;;;;12.40;7.88;;;17.80;99.90;;;17.03;100.00;97805.63;5044247;28;20048;-69
2023/07/08 01:22:43;;;;;;;16.85;9.50;;;17.70;99.90;;;16.95;100.00;97810.56;5042174;28;20132;-69
2023/07/08 01:25:13;;;;;;;13.38;8.30;;;17.80;99.90;;;16.90;100.00;97815.22;5043631;28;20061;-69
2023/07/08 01:27:48;;;;;;;17.45;7.43;;;17.70;99.90;;;16.82;100.00;97814.91;5041439;28;20114;-70
2023/07/08 01:30:17;;;;;;;14.75;8.18;;;17.60;99.90;;;16.88;100.00;97822.38;5046320;28;20071;-70
2023/07/08 01:32:56;;;;;;;15.80;8.32;;;17.70;99.90;;;16.80;100.00;97824.63;5045701;28;20049;-70
2023/07/08 01:35:23;;;;;;;13.55;8.38;;;17.60;99.90;;;16.79;100.00;97828.19;5044636;28;20056;-70
2023/07/08 01:37:58;;;;;;;12.27;7.28;;;17.60;99.90;;;16.68;100.00;97834.09;5040551;28;20475;-70
2023/07/08 01:40:33;;;;;;;20.02;8.48;;;17.50;99.90;;;16.81;100.00;97840.28;5042413;28;20041;-70
2023/07/08 01:43:01;;;;;;;14.40;7.93;;;17.50;99.90;;;16.97;100.00;97831.41;5044397;28;20079;-69
2023/07/08 01:45:35;;;;;;;13.15;7.57;;;17.60;99.90;;;17.02;100.00;97824.94;5042042;28;20090;-70
2023/07/08 01:48:13;;;;;;;14.00;8.73;;;17.80;99.90;;;16.78;100.00;97808.13;5041516;28;20390;-70
2023/07/08 01:51:04;;;;;;;12.88;7.57;;;17.80;99.90;;;17.00;100.00;97812.88;5042614;28;20106;-70
2023/07/08 01:53:40;;;;;;;12.60;7.95;;;17.80;99.90;;;16.93;100.00;97807.19;5040026;28;20474;-70
2023/07/08 01:56:09;;;;;;;14.90;8.50;;;17.90;99.90;;;16.63;100.00;97821.28;5040474;28;20521;-70
2023/07/08 01:58:36;;;;;;;13.52;8.77;;;17.80;99.90;;;16.78;100.00;97826.47;5034234;28;20099;-70
2023/07/08 02:01:04;;;;;;;15.40;8.45;;;17.60;99.90;;;16.70;100.00;97833.06;5043616;28;20059;-70
2023/07/08 02:03:31;;;;;;;15.02;8.48;;;17.60;99.90;;;16.88;100.00;97838.94;5044157;28;20073;-70
2023/07/08 02:05:58;;;;;;;15.18;7.97;;;17.60;99.90;;;16.92;100.00;97831.69;5026842;28;20118;-70
2023/07/08 02:08:26;;;;;;;13.07;7.32;;;17.80;99.90;;;16.89;100.00;97824.88;5044033;28;20106;-70
2023/07/08 02:10:57;;;;;;;13.77;8.13;;;17.70;99.90;;;16.92;100.00;97822.09;5043850;28;20085;-70
2023/07/08 02:13:26;;;;;;;14.45;7.32;;;17.70;99.90;;;16.96;100.00;97824.50;5044126;28;20056;-69
2023/07/08 02:15:53;;;;;;;14.20;7.25;;;17.70;99.90;;;17.01;100.00;97832.91;5041826;28;20049;-70
2023/07/08 02:18:20;;;;;;;13.10;6.78;;;17.80;99.90;;;17.02;100.00;97819.69;5041784;28;20053;-70
2023/07/08 02:20:47;;;;;;;14.57;7.60;;;17.80;99.90;;;17.20;100.00;97808.97;5039046;28;20145;-70
2023/07/08 02:23:15;;;;;;;15.15;6.57;;;17.90;99.90;;;17.24;100.00;97800.78;5042849;28;20049;-70
2023/07/08 02:25:53;;;;;;;15.30;7.88;;;18.00;99.90;;;17.00;100.00;97797.97;5046481;28;20084;-70
2023/07/08 02:28:21;;;;;;;13.60;7.00;;;18.00;99.90;;;17.02;100.00;97796.09;5043958;28;20103;-70
2023/07/08 02:30:48;;;;;;;12.93;6.38;;;17.90;99.90;;;16.97;100.00;97795.56;5027633;28;20111;-70
2023/07/08 02:33:17;;;;;;;10.80;6.55;;;17.90;99.90;;;17.04;100.00;97794.22;5045485;28;20052;-70
2023/07/08 02:35:45;;;;;;;13.02;7.15;;;17.90;99.90;;;17.01;100.00;97790.94;5043147;28;20074;-70
2023/07/08 02:38:12;;;;;;;10.75;6.85;;;17.90;99.90;;;16.98;100.00;97780.66;5044373;28;20064;-69
2023/07/08 02:40:40;;;;;;;13.35;7.57;;;17.90;99.90;;;16.93;100.00;97794.91;5042186;28;20527;-70
2023/07/08 02:43:06;;;;;;;14.02;6.68;;;17.80;99.90;;;17.00;100.00;97794.53;5044352;28;20115;-69
2023/07/08 02:45:33;;;;;;;14.27;6.80;;;17.80;99.90;;;17.03;100.00;97792.53;5040730;28;20338;-70
2023/07/08 02:48:00;;;;;;;13.48;8.30;;;17.90;99.90;;;16.97;100.00;97789.44;5046010;28;20053;-70
2023/07/08 02:50:27;;;;;;;13.15;6.85;;;17.80;99.90;;;16.85;100.00;97789.31;5038841;28;20114;-70
2023/07/08 02:52:55;;;;;;;10.15;6.07;;;17.80;99.90;;;16.89;100.00;97785.56;5042173;28;20111;-70
2023/07/08 02:55:22;;;;;;;13.18;6.50;;;17.80;99.90;;;16.84;100.00;97789.44;5044984;28;20052;-70
2023/07/08 02:57:49;;;;;;;13.98;6.43;;;17.80;99.90;;;16.78;100.00;97788.00;5046964;28;20061;-70
2023/07/08 03:00:16;;;;;;;12.82;6.90;;;17.80;99.90;;;16.73;100.00;97790.06;5045033;28;20136;-70
2023/07/08 03:02:45;;;;;;;18.05;6.68;;;17.70;99.90;;;16.70;100.00;97787.66;5046826;28;20130;-70
2023/07/08 03:05:12;;;;;;;11.48;6.28;;;17.60;99.90;;;16.54;100.00;97793.03;5046106;28;20041;-70
2023/07/08 03:07:39;;;;;;;11.25;5.85;;;17.50;99.90;;;16.52;100.00;97794.91;5047780;28;20157;-70
2023/07/08 03:10:06;;;;;;;12.35;6.50;;;17.50;99.90;;;16.58;100.00;97791.03;5043541;28;20154;-70
2023/07/08 03:12:33;;;;;;;12.73;6.53;;;17.40;99.90;;;16.52;100.00;97795.75;5047164;28;20127;-70
2023/07/08 03:15:00;;;;;;;11.35;7.50;;;17.40;99.90;;;16.44;100.00;97800.63;5043399;28;20135;-70
2023/07/08 03:17:27;;;;;;;12.30;5.43;;;17.40;99.90;;;16.45;100.00;97815.41;5047303;28;20140;-70
2023/07/08 03:19:54;;;;;;;11.98;6.25;;;17.30;99.90;;;16.50;100.00;97820.38;5046115;28;20072;-70
2023/07/08 03:22:21;;;;;;;11.98;5.80;;;17.30;99.90;;;16.43;100.00;97816.47;5047239;28;20106;-70
2023/07/08 03:24:48;;;;;;;10.98;6.25;;;17.40;99.90;;;16.53;100.00;97820.16;5046666;28;20128;-70
2023/07/08 03:27:16;;;;;;;10.65;5.90;;;17.30;99.90;;;16.37;100.00;97822.91;5047077;28;20057;-70
2023/07/08 03:29:43;;;;;;;14.02;5.63;;;17.30;99.90;;;16.36;100.00;97817.78;5043643;28;20053;-70
2023/07/08 03:32:12;;;;;;;17.13;6.78;;;17.30;99.90;;;16.23;100.00;97821.13;5044137;28;20138;-70
2023/07/08 03:34:40;;;;;;;10.35;5.70;;;17.20;99.90;;;16.30;100.00;97821.59;5043993;28;20053;-70
2023/07/08 03:37:12;;;;;;;12.60;5.80;;;17.20;99.90;;;16.29;100.00;97819.94;5046165;28;20573;-70
2023/07/08 03:39:39;;;;;;;18.38;5.70;;;17.20;99.90;;;16.23;100.00;97812.44;5045661;28;20455;-70
2023/07/08 03:42:06;;;;;;;16.30;5.47;;;17.10;99.90;;;16.13;100.00;97809.56;5043744;28;20470;-70
2023/07/08 03:44:33;;;;;;;14.23;6.07;;;17.10;99.90;;;16.03;100.00;97803.19;5044350;28;20091;-70
2023/07/08 03:47:00;;;;;;;13.90;6.60;;;17.00;99.90;;;15.92;100.00;97809.09;5048712;28;20149;-69
2023/07/08 03:49:28;;;;;;;16.38;6.75;;;16.90;99.90;;;15.81;100.00;97819.38;5047489;28;20060;-70
2023/07/08 03:51:55;;;;;;;16.67;5.95;;;16.90;99.90;;;15.76;100.00;97826.63;5047993;28;20602;-70
2023/07/08 03:54:25;;;;;;;17.02;5.70;;;16.80;99.90;;;15.64;100.00;97821.16;5046436;28;20049;-70
2023/07/08 03:56:53;;;;;;;14.13;6.55;;;16.80;99.90;;;15.52;100.00;97828.91;5046528;28;20053;-70
2023/07/08 03:59:20;;;;;;;13.15;6.80;;;16.60;99.90;;;15.58;100.00;97836.41;5045116;28;20156;-70
2023/07/08 04:01:47;;;;;;;14.80;6.25;;;16.60;99.90;;;15.51;100.00;97829.81;5043019;28;20056;-70
2023/07/08 04:04:15;;;;;;;11.95;5.43;;;16.50;99.90;;;15.39;100.00;97831.38;5046881;28;20075;-70
2023/07/08 04:06:46;;;;;;;14.52;5.75;;;16.40;99.90;;;15.50;100.00;97833.38;5044892;28;20479;-70
2023/07/08 04:09:14;;;;;;;16.67;5.82;;;16.50;99.90;;;15.48;100.00;97834.31;5045198;28;20118;-70
2023/07/08 04:11:41;;;;;;;13.18;5.90;;;16.40;99.90;;;15.63;100.00;97819.50;5043173;28;20052;-70
2023/07/08 04:14:09;;;;;;;12.73;5.85;;;16.40;99.90;;;15.91;100.00;97815.25;5047032;28;20104;-70
2023/07/08 04:16:48;;;;;;;18.38;5.78;;;16.50;99.90;;;15.77;100.00;97810.84;5044621;28;20048;-70
2023/07/08 04:19:16;;;;;;;19.80;5.35;;;16.60;99.90;;;15.81;100.00;97817.59;5045847;28;20070;-70
2023/07/08 04:21:44;;;;;;;15.98;5.35;;;16.60;99.90;;;15.82;100.00;97810.56;5046412;28;20098;-70
2023/07/08 04:24:14;;;;;;;20.95;6.88;;;16.60;99.90;;;15.56;100.00;97812.09;5048705;28;20040;-70
2023/07/08 04:26:41;;;;;;;14.75;5.63;;;16.60;99.90;;;15.62;100.00;97817.81;5044007;28;20052;-70
2023/07/08 04:29:14;;;;;;;10.27;6.20;;;16.60;99.90;;;15.61;100.00;97808.28;5047542;28;20451;-70
2023/07/08 04:31:41;;;;;;;11.23;5.28;;;16.50;99.90;;;15.61;100.00;97789.97;5045749;28;20080;-70
2023/07/08 04:34:09;;;;;;;14.45;5.50;;;16.50;99.90;;;15.69;100.00;97806.06;5046394;28;20049;-70
2023/07/08 04:36:39;;;;;;;16.83;6.18;;;16.50;99.90;;;15.77;100.00;97800.38;5041310;28;20506;-70
2023/07/08 04:39:09;;;;;;;15.90;5.68;;;16.50;99.90;;;15.68;100.00;97806.13;5041960;28;20520;-70
2023/07/08 04:41:40;;;;;;;13.10;4.97;;;16.50;99.90;;;15.80;100.00;97810.66;5037513;28;20053;-70
2023/07/08 04:44:10;;;;;;;13.90;5.45;;;16.60;99.90;;;15.81;100.00;97809.75;5046182;28;20051;-70
2023/07/08 04:46:52;;;;;;;17.45;5.78;;;16.60;99.90;;;15.77;100.00;97805.63;5029957;28;20493;-70
2023/07/08 04:49:21;;;;;;;13.70;5.95;;;16.60;99.90;;;15.91;100.00;97798.72;5044088;28;20045;-70
2023/07/08 04:51:51;;;;;;;10.82;6.20;;;16.60;99.90;;;15.71;100.00;97805.13;5042397;28;20057;-70
2023/07/08 04:54:18;;;;;;;10.70;5.75;;;16.70;99.90;;;15.89;100.00;97802.25;5045787;28;20159;-70
2023/07/08 04:56:48;;;;;;;19.75;6.40;;;16.80;99.90;;;16.04;100.00;97810.97;5046409;28;20083;-70
2023/07/08 04:59:23;;;;;;;17.65;6.05;;;16.80;99.90;;;16.27;100.00;97811.31;5043277;28;20075;-70
2023/07/08 05:01:52;;;;;;;16.08;5.90;;;16.90;99.90;;;16.21;100.00;97823.00;5044727;28;20140;-70
2023/07/08 05:04:22;;;;;;;16.98;6.00;;;16.90;99.90;;;16.30;100.00;97813.75;5046018;28;20107;-70
2023/07/08 05:06:50;;;;;;;31.58;6.57;;;17.00;99.90;;;16.16;100.00;97819.00;5040123;28;20094;-70
2023/07/08 05:09:17;;;;;;;12.23;5.63;;;17.10;99.90;;;16.34;100.00;97812.63;5046684;28;20136;-70
2023/07/08 05:11:44;;;;;;;16.33;6.93;;;17.10;99.90;;;16.30;100.00;97822.44;5043962;28;20061;-70
2023/07/08 05:14:13;;;;;;;18.98;7.20;;;17.10;99.90;;;16.47;100.00;97833.66;5046289;28;20083;-71
2023/07/08 05:16:40;;;;;;;16.83;8.00;;;17.20;99.90;;;16.97;100.00;97818.28;5042154;28;20508;-70
2023/07/08 05:19:08;;;;;;;13.95;6.53;;;17.30;99.90;;;17.12;100.00;97819.94;5041879;28;20049;-70
2023/07/08 05:21:35;;;;;;;17.58;7.03;;;17.50;99.90;;;16.90;100.00;97815.22;5041805;28;20052;-70
2023/07/08 05:24:05;;;;;;;18.55;7.65;;;17.50;99.90;;;17.05;100.00;97819.50;5043978;28;20056;-70
2023/07/08 05:26:33;;;;;;;17.67;7.72;;;17.60;99.90;;;16.99;100.00;97819.91;5028732;28;20059;-70
2023/07/08 05:29:04;;;;;;;12.43;6.78;;;17.60;99.90;;;17.20;100.00;97822.91;5043179;28;20061;-70
2023/07/08 05:31:34;;;;;;;14.27;7.80;;;17.70;99.90;;;17.08;100.00;97824.56;5044518;28;20094;-70
2023/07/08 05:34:04;;;;;;;11.90;6.50;;;17.70;99.90;;;17.13;100.00;97827.72;5041724;28;20057;-70
2023/07/08 05:36:31;;;;;;;15.77;8.40;;;17.60;99.90;;;17.31;100.00;97825.66;5043060;28;20140;-70
2023/07/08 05:38:58;;;;;;;10.63;7.50;;;17.40;99.90;;;17.20;100.00;97811.59;5045680;28;20045;-70
2023/07/08 05:41:26;;;;;;;36.03;7.57;;;17.50;99.90;;;16.97;100.00;97813.91;5038726;28;20037;-70
2023/07/08 05:43:53;;;;;;;14.32;8.32;;;17.40;99.90;;;16.97;100.00;97808.69;5044880;28;20050;-70
2023/07/08 05:46:20;;;;;;;12.93;7.60;;;17.40;99.90;;;17.13;100.00;97819.00;5043550;28;20627;-70
2023/07/08 05:48:48;;;;;;;10.82;8.15;;;17.40;99.90;;;17.09;100.00;97826.22;5042882;28;20056;-70
2023/07/08 05:51:24;;;;;;;14.18;7.43;;;17.60;99.90;;;17.25;100.00;97833.09;5045201;28;20118;-70
2023/07/08 05:53:51;;;;;;;16.90;7.32;;;17.70;99.90;;;17.53;100.00;97837.34;5039050;28;20053;-70
2023/07/08 05:56:25;;;;;;;13.50;8.15;;;17.80;99.90;;;17.94;100.00;97836.38;5038600;28;20563;-70
2023/07/08 05:59:14;;;;;;;12.90;6.50;;;18.00;99.90;;;18.37;100.00;97834.22;5043506;28;20437;-70
2023/07/08 06:01:41;;;;;;;11.98;7.93;;;18.30;99.90;;;18.62;100.00;97813.28;5040205;28;20080;-70
2023/07/08 06:04:11;;;;;;;14.35;7.97;;;18.60;99.90;;;19.01;100.00;97799.88;5043026;28;20048;-70
2023/07/08 06:07:09;;;;;;;14.27;8.20;;;18.90;99.90;;;19.40;100.00;97782.06;5041408;28;20045;-70
2023/07/08 06:09:45;;;;;;;11.45;8.65;;;19.20;99.90;;;19.70;100.00;97772.00;5044176;28;20059;-70
2023/07/08 06:12:13;;;;;;;9.35;7.30;;;19.50;99.90;;;19.99;100.00;97767.13;5045642;28;20137;-70
2023/07/08 06:14:40;;;;;;;11.80;7.57;;;19.80;99.90;;;20.36;100.00;97762.41;5042479;28;20061;-71
2023/07/08 06:17:14;;;;;;;12.50;7.43;;;20.00;99.90;;;20.60;100.00;97766.72;5041570;28;20500;-70
2023/07/08 06:19:49;;;;;;;11.38;7.95;;;20.40;99.90;;;20.95;100.00;97765.66;5039764;28;20147;-70
2023/07/08 06:22:22;;;;;;;13.90;7.80;;;20.80;99.90;;;21.24;100.00;97755.34;5044960;28;20110;-70
2023/07/08 06:25:09;;;;;;;14.38;8.85;;;21.10;99.90;;;21.54;100.00;97741.38;5040696;28;20049;-70
2023/07/08 06:27:55;;;;;;;13.30;7.50;;;21.40;99.90;;;21.74;100.00;97730.94;5038710;28;20523;-71
2023/07/08 06:30:59;;;;;;;10.25;6.75;;;21.70;99.90;;;21.86;100.00;97732.50;5044808;28;20087;-71
2023/07/08 06:33:29;;;;;;;15.35;6.57;;;21.90;99.90;;;21.94;100.00;97738.00;5046077;28;20056;-71
2023/07/08 06:36:03;;;;;;;12.15;6.63;;;22.10;99.90;;;22.11;100.00;97741.78;5044631;28;20111;-71
2023/07/08 06:38:48;;;;;;;11.02;6.15;;;22.20;99.90;;;22.06;100.00;97736.09;5046691;28;20073;-71
2023/07/08 06:41:59;;;;;;;11.70;7.07;;;22.20;99.90;;;22.09;100.00;97736.63;5043892;28;20061;-71
2023/07/08 06:44:35;;;;;;;11.93;6.35;;;22.40;99.90;;;22.49;100.00;97727.06;5043405;28;20044;-71
2023/07/08 06:47:02;;;;;;;12.45;6.60;;;22.50;99.90;;;22.41;100.00;97734.81;5046221;28;20052;-71
2023/07/08 06:49:29;;;;;;;11.00;5.85;;;22.70;99.90;;;22.79;100.00;97728.75;5047349;28;20053;-71
2023/07/08 06:52:00;;;;;;;10.20;5.40;;;22.90;99.90;;;22.91;100.00;97737.38;5046811;28;20073;-71
2023/07/08 06:54:41;;;;;;;8.95;5.13;;;23.10;99.90;;;23.06;100.00;97740.47;5042125;28;20084;-71
2023/07/08 06:57:34;;;;;;;11.88;5.53;;;23.20;99.90;;;23.42;100.00;97749.50;5046431;28;20045;-71
2023/07/08 07:00:15;;;;;;;11.15;5.53;;;23.40;99.90;;;23.20;100.00;97747.19;4988812;28;20082;-70
2023/07/08 07:03:17;;;;;;;13.25;5.45;;;23.40;99.90;;;23.53;100.00;97756.47;4988562;28;20054;-71
2023/07/08 07:06:14;;;;;;;14.48;6.18;;;23.60;99.90;;;23.33;100.00;97761.81;4979365;28;20058;-71
2023/07/08 07:08:48;;;;;;;11.05;5.78;;;23.70;99.90;;;23.63;100.00;97761.72;4952289;28;20587;-71
2023/07/08 07:11:29;;;;;;;13.05;6.22;;;23.90;99.90;;;23.98;100.00;97769.06;4910476;29;20100;-71
2023/07/08 07:13:58;;;;;;;12.10;5.47;;;24.20;99.90;;;24.43;100.00;97766.50;4910824;29;20154;-71
2023/07/08 07:16:34;;;;;;;12.55;5.53;;;24.50;99.90;;;24.38;100.00;97767.91;4910836;29;20083;-71
2023/07/08 07:19:07;;;;;;;9.57;5.45;;;24.60;99.90;;;24.51;100.00;97776.38;4894741;29;20062;-71
2023/07/08 07:21:41;;;;;;;11.35;5.47;;;24.80;99.90;;;24.87;100.00;97767.66;4911248;29;20084;-71
2023/07/08 07:24:13;;;;;;;10.57;5.50;;;24.90;99.90;;;24.62;100.00;97772.69;4938961;28;20054;-71
2023/07/08 07:27:01;;;;;;;10.15;5.47;;;24.90;99.90;;;25.07;100.00;97766.53;4972147;28;20404;-71
2023/07/08 07:30:03;;;;;;;12.32;6.05;;;25.20;99.90;;;24.83;100.00;97773.25;4986612;28;20557;-71
2023/07/08 07:32:46;;;;;;;8.30;5.20;;;25.10;99.90;;;24.76;100.00;97779.31;4988647;28;20589;-71
2023/07/08 07:36:03;;;;;;;8.73;5.10;;;25.10;99.90;;;24.24;100.00;97773.69;4970790;28;20694;-71
2023/07/08 07:38:50;;;;;;;10.68;5.30;;;25.00;99.90;;;24.23;100.00;97774.69;5033272;28;20588;-71
2023/07/08 07:41:18;;;;;;;12.75;5.38;;;24.90;99.90;;;24.17;100.00;97773.44;5056530;28;20056;-71
2023/07/08 07:44:04;;;;;;;8.70;4.82;;;24.80;99.90;;;24.34;100.00;97785.94;5043967;28;20509;-71
2023/07/08 07:46:37;;;;;;;9.80;4.70;;;24.90;99.90;;;24.57;100.00;97791.72;5042674;28;20187;-71
2023/07/08 07:49:13;;;;;;;11.35;5.10;;;25.00;99.90;;;25.27;100.00;97782.31;5044939;28;20131;-71
2023/07/08 07:53:13;;;;;;;8.48;4.80;;;25.30;99.90;;;25.72;100.00;97784.00;5046416;28;20053;-71
2023/07/08 07:55:40;;;;;;;11.98;5.18;;;25.70;99.90;;;25.18;100.00;97778.72;4957847;28;20111;-71
2023/07/08 07:58:26;;;;;;;9.00;4.63;;;25.80;99.90;;;25.09;100.00;97785.78;5004715;28;20171;-71
2023/07/08 08:00:53;;;;;;;9.60;4.53;;;25.60;99.90;;;25.37;100.00;97785.72;5004075;28;20053;-71
2023/07/08 08:03:33;;;;;;;10.82;5.68;;;25.60;99.90;;;25.42;100.00;97780.78;5011509;28;20078;-71
2023/07/08 08:06:00;;;;;;;8.45;5.32;;;25.80;99.90;;;25.10;100.00;97784.78;5044122;28;20056;-71
2023/07/08 08:08:31;;;;;;;12.43;5.72;;;25.80;99.90;;;25.08;100.00;97784.09;5040968;28;20144;-71
2023/07/08 08:11:03;;;;;;;11.93;5.18;;;25.50;99.90;;;25.10;100.00;97782.13;5037578;28;20045;-71
2023/07/08 08:13:42;;;;;;;9.60;4.80;;;25.30;99.90;;;25.32;100.00;97782.72;5044404;28;20052;-71
2023/07/08 08:16:13;;;;;;;10.00;4.38;;;25.30;99.90;;;25.39;100.00;97789.06;5045766;28;20083;-71
2023/07/08 08:19:02;;;;;;;9.13;4.10;;;25.50;99.90;;;25.52;100.00;97780.69;5044953;28;20132;-71
2023/07/08 08:21:54;;;;;;;11.68;5.65;;;25.30;99.90;;;25.28;100.00;97776.84;5039290;28;20093;-71
2023/07/08 08:24:21;;;;;;;11.77;5.20;;;25.30;99.90;;;25.69;100.00;97779.00;5047642;28;20508;-71
2023/07/08 08:27:03;;;;;;;10.38;4.88;;;25.70;99.90;;;25.60;100.00;97786.06;5045341;28;20149;-71
2023/07/08 08:30:15;;;;;;;8.38;4.88;;;25.60;99.90;;;26.13;100.00;97776.28;5042430;28;20142;-71
2023/07/08 08:32:51;;;;;;;9.75;4.45;;;25.80;99.90;;;25.62;100.00;97784.94;5001267;28;20518;-71
2023/07/08 08:35:21;;;;;;;11.27;4.85;;;25.70;99.90;;;25.82;100.00;97782.91;5006868;28;20053;-72
2023/07/08 08:38:02;;;;;;;8.65;4.93;;;25.90;99.90;;;25.92;100.00;97780.16;4973168;28;20092;-72
2023/07/08 08:41:08;;;;;;;8.85;4.80;;;26.10;99.90;;;26.41;100.00;97775.09;5005545;28;20607;-71
2023/07/08 08:43:54;;;;;;;11.38;4.60;;;26.40;99.90;;;27.49;100.00;97772.47;4887437;29;20160;-70
2023/07/08 08:46:40;;;;;;;13.05;5.25;;;26.90;99.90;;;26.50;100.00;97782.09;4944028;28;20053;-71
2023/07/08 08:49:22;;;;;;;9.27;4.80;;;26.80;99.90;;;26.65;100.00;97785.00;4924772;28;20587;-71
2023/07/08 08:51:50;;;;;;;8.90;5.47;;;26.40;99.90;;;26.21;100.00;97777.16;5021175;28;20703;-71
2023/07/08 08:54:17;;;;;;;9.15;4.50;;;26.40;99.90;;;26.46;100.00;97778.09;5005544;28;20143;-71
2023/07/08 08:57:06;;;;;;;7.55;4.97;;;26.40;99.90;;;27.09;100.00;97778.59;5023997;28;20628;-72
2023/07/08 08:59:44;;;;;;;7.25;4.28;;;26.50;99.90;;;28.09;100.00;97775.72;5019387;28;20057;-71
2023/07/08 09:03:02;;;;;;;7.70;4.97;;;27.00;99.90;;;28.31;100.00;97775.00;5004352;28;20049;-71
2023/07/08 09:05:29;;;;;;;7.22;4.57;;;27.70;99.90;;;28.59;100.00;97771.06;4992276;28;20670;-72
2023/07/08 09:08:13;;;;;;;8.25;4.53;;;28.10;99.90;;;29.60;100.00;97764.66;5000184;28;20137;-72
2023/07/08 09:10:54;;;;;;;11.20;4.90;;;29.10;99.90;;;29.45;100.00;97766.50;5021460;28;20561;-72
2023/07/08 09:13:37;;;;;;;8.35;4.43;;;29.70;99.00;;;29.16;100.00;97758.19;4985289;28;20605;-72
2023/07/08 09:16:26;;;;;;;8.73;4.03;;;29.80;97.40;;;29.42;100.00;97759.66;5037909;28;20110;-72
2023/07/08 09:19:00;;;;;;;10.95;4.40;;;30.00;97.80;;;29.52;100.00;97743.38;5021851;28;20149;-72
2023/07/08 09:21:41;;;;;;;8.25;4.22;;;30.50;97.40;;;29.78;100.00;97759.84;5042416;28;20437;-72
2023/07/08 09:24:24;;;;;;;9.52;4.55;;;30.50;97.80;;;29.94;100.00;97758.00;5042859;28;20478;-72
2023/07/08 09:26:53;;;;;;;8.40;6.32;;;31.00;96.00;;;29.48;100.00;97758.94;5043559;28;20045;-72
2023/07/08 09:29:22;;;;;;;15.65;4.68;;;30.70;95.00;;;29.12;100.00;97764.91;5046068;28;20048;-72
2023/07/08 09:31:49;;;;;;;6.20;3.65;;;30.90;94.80;;;29.70;100.00;97762.63;5044980;28;20049;-72
2023/07/08 09:34:22;;;;;;;8.93;4.35;;;30.70;94.30;;;29.95;100.00;97763.19;5043383;28;20049;-72
2023/07/08 09:36:51;;;;;;;8.45;3.55;;;30.60;94.60;;;30.11;100.00;97764.84;5037414;28;20135;-70
2023/07/08 09:39:20;;;;;;;6.90;4.25;;;30.30;93.90;;;30.41;100.00;97757.66;5040701;28;20152;-70
2023/07/08 09:41:49;;;;;;;10.07;4.63;;;30.30;94.00;;;30.08;100.00;97762.53;5041855;28;20103;-70
2023/07/08 09:44:28;;;;;;;8.32;4.53;;;30.80;94.60;;;30.35;100.00;97766.41;5022722;28;20098;-70
2023/07/08 09:46:59;;;;;;;8.38;3.85;;;31.00;93.80;;;30.38;100.00;97760.72;5040480;28;20055;-70
2023/07/08 09:49:35;;;;;;;7.60;3.95;;;30.60;93.50;;;30.98;100.00;97764.09;5043029;28;20040;-70
2023/07/08 09:52:04;;;;;;;12.85;4.40;;;30.60;93.60;;;31.14;100.00;97765.69;5041744;28;20061;-70
2023/07/08 09:54:32;;;;;;;10.13;4.38;;;30.70;94.00;;;30.63;100.00;97761.22;5042648;28;20103;-70
2023/07/08 09:57:09;;;;;;;7.22;4.40;;;31.10;93.70;;;30.74;100.00;97762.56;5021995;28;20045;-71
2023/07/08 09:59:46;;;;;;;9.73;4.55;;;31.40;93.60;;;32.17;100.00;97758.03;5036703;28;20053;-70
2023/07/08 10:02:42;;;;;;;10.45;4.25;;;32.20;94.30;;;31.75;100.00;97764.34;5043508;28;20149;-70
2023/07/08 10:05:42;;;;;;;7.55;3.97;;;32.90;92.20;;;32.43;100.00;97764.56;5038436;28;20049;-70
2023/07/08 10:08:18;;;;;;;9.57;3.70;;;33.00;92.60;;;31.47;100.00;97773.22;5040531;28;20107;-70
2023/07/08 10:11:00;;;;;;;8.55;4.13;;;32.90;91.90;;;32.65;100.00;97771.50;5041673;28;20053;-70
2023/07/08 10:13:51;;;;;;;7.18;3.58;;;33.60;91.70;;;31.90;100.00;97767.75;5044049;28;20134;-70
2023/07/08 10:16:38;;;;;;;6.07;3.10;;;33.10;91.10;;;32.45;100.00;97770.56;5039152;28;20045;-70
2023/07/08 10:19:17;;;;;;;10.30;3.33;;;31.90;91.30;;;32.41;100.00;97780.06;5025162;28;20347;-70
2023/07/08 10:22:38;;;;;;;6.95;3.42;;;31.60;91.30;;;31.77;100.00;97775.72;5041742;28;20073;-73
2023/07/08 10:25:30;;;;;;;6.72;3.50;;;31.20;91.20;;;31.55;100.00;97774.97;5039693;28;20523;-74
2023/07/08 10:28:05;;;;;;;8.60;3.10;;;31.50;92.50;;;31.88;100.00;97770.63;5038385;28;20397;-74
2023/07/08 10:30:59;;;;;;;6.55;3.58;;;32.00;92.10;;;32.28;100.00;97767.41;5020565;28;20544;-74
2023/07/08 10:34:01;;;;;;;8.48;3.67;;;32.40;90.50;;;32.24;100.00;97768.81;5025430;28;20045;-74
2023/07/08 10:36:47;;;;;;;6.30;3.47;;;32.00;90.80;;;32.96;100.00;97764.78;5039988;28;20084;-73
2023/07/08 10:39:29;;;;;;;6.05;3.38;;;32.50;91.80;;;32.94;100.00;97763.34;5041834;28;20203;-74